Clearwater, FL (33755)

8:43 AM EDT on August 05, 2015 (GMT -0400)
N San Remo | | Change Station
CLOSE
Current Station
Personal Weather Station
Location: Clearwater, FL
Elevation: 59 ft
Nearby Weather Stations

Elev 59 ft 27.97 °N, 82.78 °W | Updated 2 minutes ago

Clear
Clear
87.2 °F
Feels Like 116 °F
N
0.0
Wind Variable Wind from WSW
Gusts 0.0 mph

Today
High -- | Low -- °F
--% Chance of Precip.
Yesterday
High -- | Low -- °F
Precip. -- in
6:55 AM 8:18 PM
Waning Gibbous, 67% visible
Pressure 30.10 in
Visibility 6.0 miles
Clouds Clear
Heat Index 116 °F
Dew Point 87 °F
Humidity 98%
Rainfall 0.00 in
Snow Depth Not available.
UV 0.0 out of 12
Pollen 3.20 out of 12
Air Quality Not available.
Flu Activity Not available.
METAR KPIE 051153Z 00000KT 6SM BR CLR 25/24 A3010 RMK AO2 SLP191 T02500244 10256 20239 53004

More Conditions Fewer Conditions

Pressure 30.10 in
Visibility 6.0 miles
Clouds Clear
Heat Index 116 °F
Dew Point 87 °F
Humidity 98%
Rainfall 0.00 in
Snow Depth Not available.
UV 0.0 out of 12
Pollen 3.20 out of 12
Air Quality Not available.
Flu Activity Not available.
METAR KPIE 051153Z 00000KT 6SM BR CLR 25/24 A3010 RMK AO2 SLP191 T02500244 10256 20239 53004

More Conditions Fewer Conditions

10-Day Weather Forecast

×

Almanac

Astronomy

Aug. 05, 2015 Rise Set
Actual Time
Civil Twilight
Nautical Twilight
Astronomical Twilight
Moon
Length of Visible Light
Length of Day
Tomorrow will be .
, % of the Moon is Illuminated

Today's Extremes

State Highs State Lows

Community

WunderPhotos

Upload Photos

1,844,175 photos uploaded!

WunderBlogs® & News

Nearby

Air Quality

  Air Quality AQ Index Pollutant
Not available.

Snow Depth

Station Depth Elevation

Earthquake Activity

City Distance Mag. Time & Date
Minimum magnitude displayed is 2.5.

Coastal Water Temperatures

Place Temperature

Stations

Nearby Weather Stations

Station Location Temp. Windchill Dew Point Humidity Wind Precip. Elev Updated Type